sensor_id;sensor_type;location;lat;lon;timestamp;P1;durP1;ratioP1;P2;durP2;ratioP2
46653;SDS011;38960;51.074;17.004;2023-05-15T00:01:06;13.95;;;11.02;;
46653;SDS011;38960;51.074;17.004;2023-05-15T00:03:31;11.40;;;10.20;;
46653;SDS011;38960;51.074;17.004;2023-05-15T00:05:57;13.80;;;10.90;;
46653;SDS011;38960;51.074;17.004;2023-05-15T00:08:23;13.00;;;9.57;;
46653;SDS011;38960;51.074;17.004;2023-05-15T00:10:48;12.68;;;9.73;;
46653;SDS011;38960;51.074;17.004;2023-05-15T00:13:15;10.75;;;9.40;;
46653;SDS011;38960;51.074;17.004;2023-05-15T00:15:41;11.60;;;9.57;;
46653;SDS011;38960;51.074;17.004;2023-05-15T00:18:07;14.55;;;8.85;;
46653;SDS011;38960;51.074;17.004;2023-05-15T00:20:32;9.75;;;7.97;;
46653;SDS011;38960;51.074;17.004;2023-05-15T00:22:58;9.40;;;8.02;;
46653;SDS011;38960;51.074;17.004;2023-05-15T00:25:24;11.63;;;8.35;;
46653;SDS011;38960;51.074;17.004;2023-05-15T00:27:49;10.73;;;8.85;;
46653;SDS011;38960;51.074;17.004;2023-05-15T00:30:15;14.60;;;9.10;;
46653;SDS011;38960;51.074;17.004;2023-05-15T00:32:40;9.88;;;8.50;;
46653;SDS011;38960;51.074;17.004;2023-05-15T00:35:06;12.77;;;8.70;;
46653;SDS011;38960;51.074;17.004;2023-05-15T00:37:32;11.52;;;8.73;;
46653;SDS011;38960;51.074;17.004;2023-05-15T00:39:57;13.95;;;8.45;;
46653;SDS011;38960;51.074;17.004;2023-05-15T00:42:23;12.70;;;8.77;;
46653;SDS011;38960;51.074;17.004;2023-05-15T00:44:49;13.52;;;8.77;;
46653;SDS011;38960;51.074;17.004;2023-05-15T00:47:16;9.20;;;8.23;;
46653;SDS011;38960;51.074;17.004;2023-05-15T00:49:44;10.73;;;9.02;;
46653;SDS011;38960;51.074;17.004;2023-05-15T00:52:11;12.98;;;9.10;;
46653;SDS011;38960;51.074;17.004;2023-05-15T00:54:37;11.07;;;8.82;;
46653;SDS011;38960;51.074;17.004;2023-05-15T00:57:03;10.90;;;9.73;;
46653;SDS011;38960;51.074;17.004;2023-05-15T00:59:30;12.75;;;10.23;;
46653;SDS011;38960;51.074;17.004;2023-05-15T01:01:56;11.68;;;9.63;;
46653;SDS011;38960;51.074;17.004;2023-05-15T01:04:21;9.65;;;8.63;;
46653;SDS011;38960;51.074;17.004;2023-05-15T01:06:47;11.60;;;9.90;;
46653;SDS011;38960;51.074;17.004;2023-05-15T01:09:18;11.95;;;9.00;;
46653;SDS011;38960;51.074;17.004;2023-05-15T01:11:46;11.20;;;9.35;;
46653;SDS011;38960;51.074;17.004;2023-05-15T01:14:14;12.32;;;9.40;;
46653;SDS011;38960;51.074;17.004;2023-05-15T01:16:40;11.57;;;9.63;;
46653;SDS011;38960;51.074;17.004;2023-05-15T01:19:06;10.98;;;9.88;;
46653;SDS011;38960;51.074;17.004;2023-05-15T01:32:25;13.10;;;8.27;;
46653;SDS011;38960;51.074;17.004;2023-05-15T01:35:09;9.05;;;7.95;;
46653;SDS011;38960;51.074;17.004;2023-05-15T01:37:47;7.97;;;6.80;;
46653;SDS011;38960;51.074;17.004;2023-05-15T01:40:18;7.35;;;6.65;;
46653;SDS011;38960;51.074;17.004;2023-05-15T01:42:50;8.65;;;6.68;;
46653;SDS011;38960;51.074;17.004;2023-05-15T01:45:20;8.50;;;6.90;;
46653;SDS011;38960;51.074;17.004;2023-05-15T01:47:47;7.90;;;6.68;;
46653;SDS011;38960;51.074;17.004;2023-05-15T01:50:15;8.35;;;6.95;;
46653;SDS011;38960;51.074;17.004;2023-05-15T01:52:42;9.65;;;7.50;;
46653;SDS011;38960;51.074;17.004;2023-05-15T01:55:11;11.40;;;6.53;;
46653;SDS011;38960;51.074;17.004;2023-05-15T01:57:37;12.02;;;7.13;;
46653;SDS011;38960;51.074;17.004;2023-05-15T02:00:05;13.02;;;7.07;;
46653;SDS011;38960;51.074;17.004;2023-05-15T02:02:39;9.10;;;6.50;;
46653;SDS011;38960;51.074;17.004;2023-05-15T02:05:06;8.27;;;7.03;;
46653;SDS011;38960;51.074;17.004;2023-05-15T02:07:32;10.52;;;6.20;;
46653;SDS011;38960;51.074;17.004;2023-05-15T02:09:58;12.30;;;6.35;;
46653;SDS011;38960;51.074;17.004;2023-05-15T02:12:24;7.38;;;6.53;;
46653;SDS011;38960;51.074;17.004;2023-05-15T02:14:51;8.13;;;6.30;;
46653;SDS011;38960;51.074;17.004;2023-05-15T02:17:18;9.50;;;5.70;;
46653;SDS011;38960;51.074;17.004;2023-05-15T02:19:44;6.75;;;5.78;;
46653;SDS011;38960;51.074;17.004;2023-05-15T02:22:10;7.95;;;5.22;;
46653;SDS011;38960;51.074;17.004;2023-05-15T02:24:35;10.02;;;6.60;;
46653;SDS011;38960;51.074;17.004;2023-05-15T02:27:04;10.93;;;5.72;;
46653;SDS011;38960;51.074;17.004;2023-05-15T02:38:04;7.20;;;4.72;;
46653;SDS011;38960;51.074;17.004;2023-05-15T02:40:33;5.68;;;4.72;;
46653;SDS011;38960;51.074;17.004;2023-05-15T02:43:00;5.93;;;4.50;;
46653;SDS011;38960;51.074;17.004;2023-05-15T02:45:26;5.93;;;4.28;;
46653;SDS011;38960;51.074;17.004;2023-05-15T02:47:52;8.55;;;4.65;;
46653;SDS011;38960;51.074;17.004;2023-05-15T02:50:18;6.47;;;4.30;;
46653;SDS011;38960;51.074;17.004;2023-05-15T02:52:44;5.55;;;4.07;;
46653;SDS011;38960;51.074;17.004;2023-05-15T02:55:09;6.47;;;4.38;;
46653;SDS011;38960;51.074;17.004;2023-05-15T02:57:35;7.65;;;4.47;;
46653;SDS011;38960;51.074;17.004;2023-05-15T03:00:00;5.40;;;3.83;;
46653;SDS011;38960;51.074;17.004;2023-05-15T03:02:26;4.85;;;4.30;;
46653;SDS011;38960;51.074;17.004;2023-05-15T03:04:52;8.00;;;4.88;;
46653;SDS011;38960;51.074;17.004;2023-05-15T03:07:18;8.48;;;4.57;;
46653;SDS011;38960;51.074;17.004;2023-05-15T03:09:43;6.10;;;4.60;;
46653;SDS011;38960;51.074;17.004;2023-05-15T03:12:09;6.45;;;4.78;;
46653;SDS011;38960;51.074;17.004;2023-05-15T03:14:35;8.48;;;6.18;;
46653;SDS011;38960;51.074;17.004;2023-05-15T03:17:00;6.00;;;4.53;;
46653;SDS011;38960;51.074;17.004;2023-05-15T03:19:26;5.75;;;4.90;;
46653;SDS011;38960;51.074;17.004;2023-05-15T03:21:51;7.22;;;5.43;;
46653;SDS011;38960;51.074;17.004;2023-05-15T03:24:17;6.32;;;4.80;;
46653;SDS011;38960;51.074;17.004;2023-05-15T03:26:42;7.00;;;5.90;;
46653;SDS011;38960;51.074;17.004;2023-05-15T03:29:09;9.07;;;5.00;;
46653;SDS011;38960;51.074;17.004;2023-05-15T03:31:35;6.43;;;5.22;;
46653;SDS011;38960;51.074;17.004;2023-05-15T03:34:00;8.98;;;5.85;;
46653;SDS011;38960;51.074;17.004;2023-05-15T03:36:26;7.75;;;5.22;;
46653;SDS011;38960;51.074;17.004;2023-05-15T03:38:51;6.13;;;5.22;;
46653;SDS011;38960;51.074;17.004;2023-05-15T03:41:17;7.25;;;5.43;;
46653;SDS011;38960;51.074;17.004;2023-05-15T03:43:42;9.38;;;5.72;;
46653;SDS011;38960;51.074;17.004;2023-05-15T03:46:08;9.38;;;4.53;;
46653;SDS011;38960;51.074;17.004;2023-05-15T03:48:33;7.78;;;4.43;;
46653;SDS011;38960;51.074;17.004;2023-05-15T03:51:04;4.50;;;3.92;;
46653;SDS011;38960;51.074;17.004;2023-05-15T03:53:29;4.85;;;4.03;;
46653;SDS011;38960;51.074;17.004;2023-05-15T03:55:55;6.25;;;3.78;;
46653;SDS011;38960;51.074;17.004;2023-05-15T03:58:21;5.07;;;3.90;;
46653;SDS011;38960;51.074;17.004;2023-05-15T04:00:48;5.47;;;3.67;;
46653;SDS011;38960;51.074;17.004;2023-05-15T04:03:13;4.95;;;3.90;;
46653;SDS011;38960;51.074;17.004;2023-05-15T04:05:39;5.30;;;3.97;;
46653;SDS011;38960;51.074;17.004;2023-05-15T04:08:04;6.07;;;4.25;;
46653;SDS011;38960;51.074;17.004;2023-05-15T04:10:30;4.50;;;3.92;;
46653;SDS011;38960;51.074;17.004;2023-05-15T04:12:57;6.50;;;3.90;;
46653;SDS011;38960;51.074;17.004;2023-05-15T04:15:23;6.00;;;4.35;;
46653;SDS011;38960;51.074;17.004;2023-05-15T04:17:51;6.35;;;4.55;;
46653;SDS011;38960;51.074;17.004;2023-05-15T04:20:19;5.85;;;4.78;;
46653;SDS011;38960;51.074;17.004;2023-05-15T04:22:45;6.68;;;4.82;;
46653;SDS011;38960;51.074;17.004;2023-05-15T04:25:11;7.47;;;5.40;;
46653;SDS011;38960;51.074;17.004;2023-05-15T04:27:38;5.57;;;4.95;;
46653;SDS011;38960;51.074;17.004;2023-05-15T04:30:05;6.43;;;4.88;;
46653;SDS011;38960;51.074;17.004;2023-05-15T04:32:31;7.82;;;5.30;;
46653;SDS011;38960;51.074;17.004;2023-05-15T04:35:04;8.85;;;5.88;;
46653;SDS011;38960;51.074;17.004;2023-05-15T04:37:30;6.82;;;5.32;;
46653;SDS011;38960;51.074;17.004;2023-05-15T04:39:56;9.45;;;6.18;;
46653;SDS011;38960;51.074;17.004;2023-05-15T04:42:21;8.02;;;5.93;;
46653;SDS011;38960;51.074;17.004;2023-05-15T04:44:47;6.95;;;6.03;;
46653;SDS011;38960;51.074;17.004;2023-05-15T04:47:13;9.73;;;6.97;;
46653;SDS011;38960;51.074;17.004;2023-05-15T04:49:39;6.95;;;6.25;;
46653;SDS011;38960;51.074;17.004;2023-05-15T04:52:05;8.52;;;6.43;;
46653;SDS011;38960;51.074;17.004;2023-05-15T04:54:31;7.47;;;6.45;;
46653;SDS011;38960;51.074;17.004;2023-05-15T04:56:57;7.72;;;6.20;;
46653;SDS011;38960;51.074;17.004;2023-05-15T04:59:22;9.00;;;6.00;;
46653;SDS011;38960;51.074;17.004;2023-05-15T05:01:49;11.02;;;5.65;;
46653;SDS011;38960;51.074;17.004;2023-05-15T05:04:15;8.60;;;6.15;;
46653;SDS011;38960;51.074;17.004;2023-05-15T05:06:46;7.80;;;6.75;;
46653;SDS011;38960;51.074;17.004;2023-05-15T05:09:12;7.75;;;6.75;;
46653;SDS011;38960;51.074;17.004;2023-05-15T05:11:38;8.77;;;7.63;;
46653;SDS011;38960;51.074;17.004;2023-05-15T05:14:07;8.38;;;7.40;;
46653;SDS011;38960;51.074;17.004;2023-05-15T05:16:36;8.45;;;6.88;;
46653;SDS011;38960;51.074;17.004;2023-05-15T05:19:02;10.80;;;7.43;;
46653;SDS011;38960;51.074;17.004;2023-05-15T05:21:28;8.38;;;7.38;;
46653;SDS011;38960;51.074;17.004;2023-05-15T05:23:53;9.55;;;6.88;;
46653;SDS011;38960;51.074;17.004;2023-05-15T05:26:20;9.48;;;6.82;;
46653;SDS011;38960;51.074;17.004;2023-05-15T05:28:46;8.70;;;7.72;;
46653;SDS011;38960;51.074;17.004;2023-05-15T05:31:11;11.02;;;7.53;;
46653;SDS011;38960;51.074;17.004;2023-05-15T05:33:37;6.97;;;6.28;;
46653;SDS011;38960;51.074;17.004;2023-05-15T05:36:03;6.47;;;5.88;;
46653;SDS011;38960;51.074;17.004;2023-05-15T05:38:29;8.18;;;6.65;;
46653;SDS011;38960;51.074;17.004;2023-05-15T05:40:55;8.35;;;5.80;;
46653;SDS011;38960;51.074;17.004;2023-05-15T05:43:20;8.43;;;6.55;;
46653;SDS011;38960;51.074;17.004;2023-05-15T05:45:46;7.97;;;5.20;;
46653;SDS011;38960;51.074;17.004;2023-05-15T05:48:12;8.82;;;5.43;;
46653;SDS011;38960;51.074;17.004;2023-05-15T05:50:38;7.90;;;5.60;;
46653;SDS011;38960;51.074;17.004;2023-05-15T05:53:04;5.57;;;5.07;;
46653;SDS011;38960;51.074;17.004;2023-05-15T05:55:29;6.00;;;5.13;;
46653;SDS011;38960;51.074;17.004;2023-05-15T05:57:55;5.93;;;5.10;;
46653;SDS011;38960;51.074;17.004;2023-05-15T06:00:20;6.20;;;5.38;;
46653;SDS011;38960;51.074;17.004;2023-05-15T06:02:46;7.20;;;5.63;;
46653;SDS011;38960;51.074;17.004;2023-05-15T06:05:12;8.82;;;5.45;;
46653;SDS011;38960;51.074;17.004;2023-05-15T06:07:37;6.78;;;5.45;;
46653;SDS011;38960;51.074;17.004;2023-05-15T06:10:03;9.00;;;5.43;;
46653;SDS011;38960;51.074;17.004;2023-05-15T06:12:29;9.10;;;5.82;;
46653;SDS011;38960;51.074;17.004;2023-05-15T06:14:54;8.15;;;5.90;;
46653;SDS011;38960;51.074;17.004;2023-05-15T06:17:20;6.35;;;5.30;;
46653;SDS011;38960;51.074;17.004;2023-05-15T06:19:45;7.80;;;5.65;;
46653;SDS011;38960;51.074;17.004;2023-05-15T06:22:11;6.32;;;5.68;;
46653;SDS011;38960;51.074;17.004;2023-05-15T06:24:36;6.15;;;4.75;;
46653;SDS011;38960;51.074;17.004;2023-05-15T06:27:02;5.72;;;5.13;;
46653;SDS011;38960;51.074;17.004;2023-05-15T06:29:28;6.75;;;5.70;;
46653;SDS011;38960;51.074;17.004;2023-05-15T06:31:53;6.05;;;5.35;;
46653;SDS011;38960;51.074;17.004;2023-05-15T06:34:19;11.55;;;5.70;;
46653;SDS011;38960;51.074;17.004;2023-05-15T06:36:44;6.30;;;5.70;;
46653;SDS011;38960;51.074;17.004;2023-05-15T06:39:10;9.85;;;5.90;;
46653;SDS011;38960;51.074;17.004;2023-05-15T06:41:36;6.10;;;5.50;;
46653;SDS011;38960;51.074;17.004;2023-05-15T06:44:02;6.85;;;5.30;;
46653;SDS011;38960;51.074;17.004;2023-05-15T06:46:28;8.20;;;6.13;;
46653;SDS011;38960;51.074;17.004;2023-05-15T06:48:53;5.60;;;5.07;;
46653;SDS011;38960;51.074;17.004;2023-05-15T06:51:19;7.13;;;5.78;;
46653;SDS011;38960;51.074;17.004;2023-05-15T06:53:44;6.35;;;5.70;;
46653;SDS011;38960;51.074;17.004;2023-05-15T06:56:10;6.07;;;5.47;;
46653;SDS011;38960;51.074;17.004;2023-05-15T06:58:35;5.97;;;5.28;;
46653;SDS011;38960;51.074;17.004;2023-05-15T07:01:01;7.07;;;5.63;;
46653;SDS011;38960;51.074;17.004;2023-05-15T07:03:31;8.95;;;5.60;;
46653;SDS011;38960;51.074;17.004;2023-05-15T07:05:57;5.85;;;5.32;;
46653;SDS011;38960;51.074;17.004;2023-05-15T07:08:22;5.80;;;5.20;;
46653;SDS011;38960;51.074;17.004;2023-05-15T07:10:48;6.53;;;5.93;;
46653;SDS011;38960;51.074;17.004;2023-05-15T07:13:17;6.68;;;5.93;;
46653;SDS011;38960;51.074;17.004;2023-05-15T07:15:44;7.68;;;5.20;;
46653;SDS011;38960;51.074;17.004;2023-05-15T07:18:09;5.68;;;5.18;;
46653;SDS011;38960;51.074;17.004;2023-05-15T07:20:35;8.10;;;5.43;;
46653;SDS011;38960;51.074;17.004;2023-05-15T07:23:00;6.50;;;5.70;;
46653;SDS011;38960;51.074;17.004;2023-05-15T07:25:26;5.63;;;5.13;;
46653;SDS011;38960;51.074;17.004;2023-05-15T07:27:51;5.90;;;5.30;;
46653;SDS011;38960;51.074;17.004;2023-05-15T07:30:17;5.85;;;5.25;;
46653;SDS011;38960;51.074;17.004;2023-05-15T07:32:43;5.90;;;5.30;;
46653;SDS011;38960;51.074;17.004;2023-05-15T07:35:08;5.97;;;5.18;;
46653;SDS011;38960;51.074;17.004;2023-05-15T07:37:35;6.18;;;4.60;;
46653;SDS011;38960;51.074;17.004;2023-05-15T07:40:01;6.13;;;5.10;;
46653;SDS011;38960;51.074;17.004;2023-05-15T07:42:28;7.97;;;5.38;;
46653;SDS011;38960;51.074;17.004;2023-05-15T07:44:53;5.78;;;5.28;;
46653;SDS011;38960;51.074;17.004;2023-05-15T07:47:19;5.82;;;4.78;;
46653;SDS011;38960;51.074;17.004;2023-05-15T07:49:44;6.07;;;5.45;;
46653;SDS011;38960;51.074;17.004;2023-05-15T07:52:10;6.93;;;5.32;;
46653;SDS011;38960;51.074;17.004;2023-05-15T07:54:35;5.70;;;5.15;;
46653;SDS011;38960;51.074;17.004;2023-05-15T07:57:03;6.18;;;5.57;;
46653;SDS011;38960;51.074;17.004;2023-05-15T07:59:29;7.32;;;6.13;;
46653;SDS011;38960;51.074;17.004;2023-05-15T08:01:55;7.20;;;5.85;;
46653;SDS011;38960;51.074;17.004;2023-05-15T08:04:20;6.57;;;5.97;;
46653;SDS011;38960;51.074;17.004;2023-05-15T08:06:46;6.30;;;5.28;;
46653;SDS011;38960;51.074;17.004;2023-05-15T08:09:12;6.13;;;4.93;;
46653;SDS011;38960;51.074;17.004;2023-05-15T08:11:37;7.43;;;5.82;;
46653;SDS011;38960;51.074;17.004;2023-05-15T08:14:02;7.88;;;4.50;;
46653;SDS011;38960;51.074;17.004;2023-05-15T08:16:28;6.40;;;4.85;;
46653;SDS011;38960;51.074;17.004;2023-05-15T08:18:53;5.72;;;4.88;;
46653;SDS011;38960;51.074;17.004;2023-05-15T08:21:25;5.43;;;4.70;;
46653;SDS011;38960;51.074;17.004;2023-05-15T08:23:51;5.40;;;4.90;;
46653;SDS011;38960;51.074;17.004;2023-05-15T08:26:17;5.43;;;4.70;;
46653;SDS011;38960;51.074;17.004;2023-05-15T08:28:43;6.82;;;5.32;;
46653;SDS011;38960;51.074;17.004;2023-05-15T08:31:09;5.57;;;5.07;;
46653;SDS011;38960;51.074;17.004;2023-05-15T08:33:35;6.00;;;5.40;;
46653;SDS011;38960;51.074;17.004;2023-05-15T08:36:00;6.18;;;5.57;;
46653;SDS011;38960;51.074;17.004;2023-05-15T08:38:26;11.30;;;5.68;;
46653;SDS011;38960;51.074;17.004;2023-05-15T08:40:52;6.97;;;5.57;;
46653;SDS011;38960;51.074;17.004;2023-05-15T08:43:18;6.45;;;5.85;;
46653;SDS011;38960;51.074;17.004;2023-05-15T08:45:45;7.85;;;6.13;;
46653;SDS011;38960;51.074;17.004;2023-05-15T08:48:17;6.97;;;6.30;;
46653;SDS011;38960;51.074;17.004;2023-05-15T08:50:46;7.57;;;6.70;;
46653;SDS011;38960;51.074;17.004;2023-05-15T08:53:12;6.75;;;5.75;;
46653;SDS011;38960;51.074;17.004;2023-05-15T08:55:38;7.05;;;6.35;;
46653;SDS011;38960;51.074;17.004;2023-05-15T08:58:04;10.38;;;7.43;;
46653;SDS011;38960;51.074;17.004;2023-05-15T09:00:30;7.60;;;6.90;;
46653;SDS011;38960;51.074;17.004;2023-05-15T09:02:57;7.90;;;7.03;;
46653;SDS011;38960;51.074;17.004;2023-05-15T09:05:24;8.88;;;7.43;;
46653;SDS011;38960;51.074;17.004;2023-05-15T09:07:50;10.07;;;6.80;;
46653;SDS011;38960;51.074;17.004;2023-05-15T09:10:16;9.02;;;7.35;;
46653;SDS011;38960;51.074;17.004;2023-05-15T09:12:43;7.07;;;6.35;;
46653;SDS011;38960;51.074;17.004;2023-05-15T09:15:09;7.18;;;6.35;;
46653;SDS011;38960;51.074;17.004;2023-05-15T09:17:40;8.18;;;5.93;;
46653;SDS011;38960;51.074;17.004;2023-05-15T09:20:12;6.35;;;5.75;;
46653;SDS011;38960;51.074;17.004;2023-05-15T09:22:48;7.32;;;6.10;;
46653;SDS011;38960;51.074;17.004;2023-05-15T09:25:14;7.47;;;6.78;;
46653;SDS011;38960;51.074;17.004;2023-05-15T09:27:57;7.47;;;6.78;;
46653;SDS011;38960;51.074;17.004;2023-05-15T09:30:25;8.15;;;7.13;;
46653;SDS011;38960;51.074;17.004;2023-05-15T09:32:51;7.07;;;6.45;;
46653;SDS011;38960;51.074;17.004;2023-05-15T09:35:35;7.22;;;6.47;;
46653;SDS011;38960;51.074;17.004;2023-05-15T09:38:03;8.88;;;6.78;;
46653;SDS011;38960;51.074;17.004;2023-05-15T09:40:34;8.52;;;6.85;;
46653;SDS011;38960;51.074;17.004;2023-05-15T09:43:00;9.38;;;6.20;;
46653;SDS011;38960;51.074;17.004;2023-05-15T09:45:25;8.60;;;7.25;;
46653;SDS011;38960;51.074;17.004;2023-05-15T09:47:54;7.82;;;7.13;;
46653;SDS011;38960;51.074;17.004;2023-05-15T09:50:34;8.65;;;7.30;;
46653;SDS011;38960;51.074;17.004;2023-05-15T09:53:01;7.90;;;7.10;;
46653;SDS011;38960;51.074;17.004;2023-05-15T09:55:27;9.98;;;7.72;;
46653;SDS011;38960;51.074;17.004;2023-05-15T10:00:38;7.63;;;6.93;;
46653;SDS011;38960;51.074;17.004;2023-05-15T10:03:04;7.47;;;6.70;;
46653;SDS011;38960;51.074;17.004;2023-05-15T10:05:31;7.72;;;6.85;;
46653;SDS011;38960;51.074;17.004;2023-05-15T10:07:57;9.38;;;6.53;;
46653;SDS011;38960;51.074;17.004;2023-05-15T10:10:23;8.30;;;7.00;;
46653;SDS011;38960;51.074;17.004;2023-05-15T10:12:50;9.00;;;8.10;;
46653;SDS011;38960;51.074;17.004;2023-05-15T10:15:17;8.30;;;6.97;;
46653;SDS011;38960;51.074;17.004;2023-05-15T10:17:44;8.90;;;6.80;;
46653;SDS011;38960;51.074;17.004;2023-05-15T10:20:12;6.55;;;5.90;;
46653;SDS011;38960;51.074;17.004;2023-05-15T10:22:39;6.10;;;5.40;;
46653;SDS011;38960;51.074;17.004;2023-05-15T10:25:12;6.25;;;5.65;;
46653;SDS011;38960;51.074;17.004;2023-05-15T10:27:41;7.93;;;6.13;;
46653;SDS011;38960;51.074;17.004;2023-05-15T10:30:07;6.07;;;4.90;;
46653;SDS011;38960;51.074;17.004;2023-05-15T10:32:34;5.72;;;4.55;;
46653;SDS011;38960;51.074;17.004;2023-05-15T10:35:00;6.30;;;5.15;;
46653;SDS011;38960;51.074;17.004;2023-05-15T10:37:27;28.50;;;12.43;;
46653;SDS011;38960;51.074;17.004;2023-05-15T10:39:53;11.35;;;5.78;;
46653;SDS011;38960;51.074;17.004;2023-05-15T10:42:20;16.80;;;9.10;;
46653;SDS011;38960;51.074;17.004;2023-05-15T10:44:46;13.52;;;6.50;;
46653;SDS011;38960;51.074;17.004;2023-05-15T10:47:13;4.20;;;3.80;;
46653;SDS011;38960;51.074;17.004;2023-05-15T10:49:38;5.30;;;4.25;;
46653;SDS011;38960;51.074;17.004;2023-05-15T10:52:04;3.97;;;3.67;;
46653;SDS011;38960;51.074;17.004;2023-05-15T10:54:30;5.38;;;4.25;;
46653;SDS011;38960;51.074;17.004;2023-05-15T10:56:55;5.70;;;4.07;;
46653;SDS011;38960;51.074;17.004;2023-05-15T10:59:22;5.20;;;3.55;;
46653;SDS011;38960;51.074;17.004;2023-05-15T11:01:55;4.22;;;3.83;;
46653;SDS011;38960;51.074;17.004;2023-05-15T11:04:21;9.00;;;3.95;;
46653;SDS011;38960;51.074;17.004;2023-05-15T11:06:48;6.72;;;4.22;;
46653;SDS011;38960;51.074;17.004;2023-05-15T11:12:07;6.28;;;4.00;;
46653;SDS011;38960;51.074;17.004;2023-05-15T11:14:42;6.22;;;4.15;;
46653;SDS011;38960;51.074;17.004;2023-05-15T11:17:09;3.80;;;3.40;;
46653;SDS011;38960;51.074;17.004;2023-05-15T11:24:57;5.43;;;4.93;;
46653;SDS011;38960;51.074;17.004;2023-05-15T11:27:24;6.63;;;4.55;;
46653;SDS011;38960;51.074;17.004;2023-05-15T11:33:00;6.28;;;3.65;;
46653;SDS011;38960;51.074;17.004;2023-05-15T11:35:29;7.20;;;5.10;;
46653;SDS011;38960;51.074;17.004;2023-05-15T11:38:03;5.30;;;3.67;;
46653;SDS011;38960;51.074;17.004;2023-05-15T11:48:33;5.93;;;3.40;;
46653;SDS011;38960;51.074;17.004;2023-05-15T11:51:11;6.93;;;4.22;;
46653;SDS011;38960;51.074;17.004;2023-05-15T11:53:40;5.10;;;3.03;;
46653;SDS011;38960;51.074;17.004;2023-05-15T11:56:11;4.05;;;3.03;;
46653;SDS011;38960;51.074;17.004;2023-05-15T11:58:37;7.57;;;4.50;;
46653;SDS011;38960;51.074;17.004;2023-05-15T12:01:03;7.65;;;4.05;;
46653;SDS011;38960;51.074;17.004;2023-05-15T12:03:32;3.13;;;2.60;;
46653;SDS011;38960;51.074;17.004;2023-05-15T12:06:00;6.53;;;3.38;;
46653;SDS011;38960;51.074;17.004;2023-05-15T12:08:30;4.25;;;2.72;;
46653;SDS011;38960;51.074;17.004;2023-05-15T12:10:57;2.67;;;2.47;;
46653;SDS011;38960;51.074;17.004;2023-05-15T12:13:23;10.25;;;2.45;;
46653;SDS011;38960;51.074;17.004;2023-05-15T12:15:49;4.68;;;2.80;;
46653;SDS011;38960;51.074;17.004;2023-05-15T12:18:15;2.80;;;2.55;;
46653;SDS011;38960;51.074;17.004;2023-05-15T12:20:41;5.97;;;3.03;;
46653;SDS011;38960;51.074;17.004;2023-05-15T12:23:13;6.05;;;2.75;;
46653;SDS011;38960;51.074;17.004;2023-05-15T12:25:40;6.35;;;2.65;;
46653;SDS011;38960;51.074;17.004;2023-05-15T12:28:06;3.38;;;2.47;;
46653;SDS011;38960;51.074;17.004;2023-05-15T12:30:32;3.25;;;2.33;;
46653;SDS011;38960;51.074;17.004;2023-05-15T12:32:59;5.03;;;2.75;;
46653;SDS011;38960;51.074;17.004;2023-05-15T12:35:27;2.85;;;1.95;;
46653;SDS011;38960;51.074;17.004;2023-05-15T12:37:53;6.43;;;3.78;;
46653;SDS011;38960;51.074;17.004;2023-05-15T12:40:22;2.20;;;1.88;;
46653;SDS011;38960;51.074;17.004;2023-05-15T12:42:50;3.03;;;2.30;;
46653;SDS011;38960;51.074;17.004;2023-05-15T12:45:18;4.37;;;2.37;;
46653;SDS011;38960;51.074;17.004;2023-05-15T12:47:46;2.50;;;1.95;;
46653;SDS011;38960;51.074;17.004;2023-05-15T12:52:39;2.63;;;2.05;;
46653;SDS011;38960;51.074;17.004;2023-05-15T12:55:05;4.22;;;2.78;;
46653;SDS011;38960;51.074;17.004;2023-05-15T12:57:31;3.90;;;2.75;;
46653;SDS011;38960;51.074;17.004;2023-05-15T12:59:58;4.80;;;3.20;;
46653;SDS011;38960;51.074;17.004;2023-05-15T13:02:24;2.45;;;2.03;;
46653;SDS011;38960;51.074;17.004;2023-05-15T13:04:49;3.35;;;2.10;;
46653;SDS011;38960;51.074;17.004;2023-05-15T13:07:15;4.00;;;2.00;;
46653;SDS011;38960;51.074;17.004;2023-05-15T13:09:41;3.50;;;2.15;;
46653;SDS011;38960;51.074;17.004;2023-05-15T13:12:07;2.50;;;2.20;;
46653;SDS011;38960;51.074;17.004;2023-05-15T13:14:33;3.88;;;2.10;;
46653;SDS011;38960;51.074;17.004;2023-05-15T13:16:59;2.25;;;2.00;;
46653;SDS011;38960;51.074;17.004;2023-05-15T13:19:26;4.07;;;2.15;;
46653;SDS011;38960;51.074;17.004;2023-05-15T13:21:52;5.28;;;2.63;;
46653;SDS011;38960;51.074;17.004;2023-05-15T13:24:18;5.82;;;2.53;;
46653;SDS011;38960;51.074;17.004;2023-05-15T13:26:43;5.13;;;2.70;;
46653;SDS011;38960;51.074;17.004;2023-05-15T13:29:09;4.25;;;2.22;;
46653;SDS011;38960;51.074;17.004;2023-05-15T13:31:34;3.22;;;2.13;;
46653;SDS011;38960;51.074;17.004;2023-05-15T13:34:00;3.47;;;1.92;;
46653;SDS011;38960;51.074;17.004;2023-05-15T13:36:25;2.15;;;1.85;;
46653;SDS011;38960;51.074;17.004;2023-05-15T13:38:51;2.58;;;1.85;;
46653;SDS011;38960;51.074;17.004;2023-05-15T13:41:16;6.03;;;1.80;;
46653;SDS011;38960;51.074;17.004;2023-05-15T13:43:42;2.42;;;1.95;;
46653;SDS011;38960;51.074;17.004;2023-05-15T13:46:08;3.08;;;2.08;;
46653;SDS011;38960;51.074;17.004;2023-05-15T13:48:33;3.22;;;2.90;;
46653;SDS011;38960;51.074;17.004;2023-05-15T13:50:59;2.83;;;2.60;;
46653;SDS011;38960;51.074;17.004;2023-05-15T13:53:24;3.70;;;2.53;;
46653;SDS011;38960;51.074;17.004;2023-05-15T13:55:50;2.92;;;2.60;;
46653;SDS011;38960;51.074;17.004;2023-05-15T13:58:15;2.85;;;2.55;;
46653;SDS011;38960;51.074;17.004;2023-05-15T14:00:42;2.40;;;2.20;;
46653;SDS011;38960;51.074;17.004;2023-05-15T14:03:08;3.58;;;2.65;;
46653;SDS011;38960;51.074;17.004;2023-05-15T14:05:33;4.47;;;2.28;;
46653;SDS011;38960;51.074;17.004;2023-05-15T14:07:59;3.65;;;2.22;;
46653;SDS011;38960;51.074;17.004;2023-05-15T14:10:25;2.65;;;2.35;;
46653;SDS011;38960;51.074;17.004;2023-05-15T14:12:51;3.03;;;2.40;;
46653;SDS011;38960;51.074;17.004;2023-05-15T14:15:16;4.53;;;2.08;;
46653;SDS011;38960;51.074;17.004;2023-05-15T14:17:42;4.07;;;2.65;;
46653;SDS011;38960;51.074;17.004;2023-05-15T14:20:08;2.90;;;2.63;;
46653;SDS011;38960;51.074;17.004;2023-05-15T14:22:36;2.42;;;2.13;;
46653;SDS011;38960;51.074;17.004;2023-05-15T14:25:02;3.42;;;2.50;;
46653;SDS011;38960;51.074;17.004;2023-05-15T14:27:28;12.77;;;2.67;;
46653;SDS011;38960;51.074;17.004;2023-05-15T14:29:54;2.85;;;2.13;;
46653;SDS011;38960;51.074;17.004;2023-05-15T14:32:21;2.30;;;2.08;;
46653;SDS011;38960;51.074;17.004;2023-05-15T14:34:47;2.30;;;2.10;;
46653;SDS011;38960;51.074;17.004;2023-05-15T14:37:13;3.28;;;2.20;;
46653;SDS011;38960;51.074;17.004;2023-05-15T14:39:39;3.17;;;2.20;;
46653;SDS011;38960;51.074;17.004;2023-05-15T14:42:04;2.28;;;1.83;;
46653;SDS011;38960;51.074;17.004;2023-05-15T14:44:30;3.50;;;2.25;;
46653;SDS011;38960;51.074;17.004;2023-05-15T14:47:06;2.38;;;2.15;;
46653;SDS011;38960;51.074;17.004;2023-05-15T14:49:36;4.82;;;2.70;;
46653;SDS011;38960;51.074;17.004;2023-05-15T14:52:02;2.58;;;1.98;;
46653;SDS011;38960;51.074;17.004;2023-05-15T14:54:29;1.95;;;1.70;;
46653;SDS011;38960;51.074;17.004;2023-05-15T14:56:55;2.28;;;2.08;;
46653;SDS011;38960;51.074;17.004;2023-05-15T14:59:20;3.10;;;2.20;;
46653;SDS011;38960;51.074;17.004;2023-05-15T15:01:46;3.13;;;2.05;;
46653;SDS011;38960;51.074;17.004;2023-05-15T15:04:11;3.90;;;2.38;;
46653;SDS011;38960;51.074;17.004;2023-05-15T15:06:37;2.03;;;1.80;;
46653;SDS011;38960;51.074;17.004;2023-05-15T15:09:02;3.40;;;2.45;;
46653;SDS011;38960;51.074;17.004;2023-05-15T15:11:28;3.15;;;2.50;;
46653;SDS011;38960;51.074;17.004;2023-05-15T15:13:53;12.52;;;7.25;;